Mount Pleasant, Canada
Current Conditions -  °F | °C
As of 7:00 PM on Wednesday 22 Oct 2014 (Local Time) from CYGK Reporting Station
Broken Clouds Broken Clouds  
Wind Chill: 50°   Ceiling: 6500
Heat Index: 50°   Visibility: 15mi
Dew Point: 41°   Wind: 13mph
Humidity: 71%   Direction: 10°N
Pressure: 30.2"   Gusts: NA
Location:  44.23°N, 77.03°W
Report Text: CYGK 222300Z 01011KT 15SM BKN065 10/05 A3020 RMK SC7 SLP230
Loading
Personal Weather Stations






























Interactive Weather Map
Tropical Storm Tracking
New forecast layout! Learn more

10-Day Weather Forecast

Advertisements
Track Severe Weather on mobile